This is the latest recevied weather packets stored in our database for station/object PY2FLB-13. If no packets are shown the sender has not sent any weather packets the latest 10 day(s).
| Time | Temp. | Humidity | Pressure | Rain* | Wind** | Luminosity | Snow |
|---|---|---|---|---|---|---|---|
| 1778052169 | 22.78° C | 58% | 1017.1 hPa | - | - | - | - |
| 1778051869 | 22.22° C | 59% | 1017.2 hPa | - | - | - | - |
| 1778051569 | 22.22° C | 59% | 1017.3 hPa | - | - | - | - |
| 1778051269 | 23.33° C | 56% | 1017 hPa | - | - | - | - |
| 1778050969 | 22.78° C | 57% | 1017.1 hPa | - | - | - | - |
| 1778050669 | 23.33° C | 56% | 1017 hPa | - | - | - | - |
| 1778050370 | 22.78° C | 57% | 1017.1 hPa | - | - | - | - |
| 1778050069 | 23.33° C | 56% | 1017 hPa | - | - | - | - |
| 1778049769 | 23.33° C | 56% | 1017.1 hPa | - | - | - | - |
| 1778049469 | 23.33° C | 56% | 1017 hPa | - | - | - | - |
| 1778049169 | 23.89° C | 55% | 1017 hPa | - | - | - | - |
| 1778048869 | 23.33° C | 56% | 1017.1 hPa | - | - | - | - |
| 1778048569 | 23.89° C | 55% | 1016.9 hPa | - | - | - | - |
| 1778048269 | 23.33° C | 55% | 1017 hPa | - | - | - | - |
| 1778047969 | 23.33° C | 56% | 1017.1 hPa | - | - | - | - |
| 1778047669 | 23.33° C | 56% | 1017.2 hPa | - | - | - | - |
| 1778047369 | 23.89° C | 55% | 1017.2 hPa | - | - | - | - |
| 1778047069 | 23.89° C | 54% | 1017.1 hPa | - | - | - | - |
| 1778046769 | 24.44° C | 54% | 1017.1 hPa | - | - | - | - |
| 1778046469 | 23.89° C | 55% | 1017.2 hPa | - | - | - | - |
| 1778046169 | 24.44° C | 53% | 1017.1 hPa | - | - | - | - |
| 1778045869 | 23.89° C | 53% | 1017.1 hPa | - | - | - | - |
| 1778045569 | 24.44° C | 53% | 1017.1 hPa | - | - | - | - |
| 1778045269 | 25° C | 52% | 1017 hPa | - | - | - | - |
| 1778044969 | 25° C | 51% | 1017 hPa | - | - | - | - |
* Rain since midnight (hover to see other rain measurements)
** Current wind speed in m/s (hover to see current wind gust speed)